BAW756 EGLL-LSGG
Flight info
| Callsign | BAW756 |
|---|---|
| Flight time | N/A |
| Altitude | 37000 |
| Route | MAXIT Y803 MID UL612 VEULE DCT PEKIM DCT PILUL DCT PIMUP/N0431F270 DCT PIXIS DCT PIBAT/N0403F230 DCT LUSAR |
| Aircraft | A319/M-SDE3FGHIRWY/LB1 |
Departure
| Time | N/A |
|---|---|
| Airport | London Heathrow Airport (EGLL) |
Arrival
| Time | 2026-05-03 20:24 |
|---|---|
| Airport | Geneva International Airport (LSGG) |
| Time | Latitude | Longitude | Altitude | Speed | Heading |
|---|---|---|---|---|---|
| 2026-05-03 20:15 | 46.56178 | 6.37824 | 9087 ft | 300 kts | 48° |
| 2026-05-03 20:15 | 46.57477 | 6.40130 | 8752 ft | 290 kts | 65° |
| 2026-05-03 20:15 | 46.58000 | 6.42858 | 8421 ft | 275 kts | 94° |
| 2026-05-03 20:15 | 46.57614 | 6.45471 | 8093 ft | 259 kts | 123° |
| 2026-05-03 20:16 | 46.56467 | 6.47337 | 7797 ft | 242 kts | 152° |
| 2026-05-03 20:16 | 46.54914 | 6.48121 | 7551 ft | 236 kts | 171° |
| 2026-05-03 20:16 | 46.53285 | 6.48338 | 7306 ft | 235 kts | 187° |
| 2026-05-03 20:16 | 46.51679 | 6.47888 | 7092 ft | 235 kts | 193° |
| 2026-05-03 20:17 | 46.50085 | 6.47334 | 7013 ft | 235 kts | 194° |
| 2026-05-03 20:17 | 46.48533 | 6.46674 | 7015 ft | 235 kts | 204° |
| 2026-05-03 20:17 | 46.47184 | 6.45434 | 7017 ft | 228 kts | 221° |
| 2026-05-03 20:17 | 46.46072 | 6.43814 | 7022 ft | 224 kts | 224° |
| 2026-05-03 20:18 | 46.45008 | 6.42225 | 6867 ft | 217 kts | 224° |
| 2026-05-03 20:18 | 46.43964 | 6.40672 | 6629 ft | 214 kts | 224° |
| 2026-05-03 20:18 | 46.42932 | 6.39140 | 6358 ft | 211 kts | 224° |
| 2026-05-03 20:18 | 46.41908 | 6.37620 | 6074 ft | 210 kts | 224° |
| 2026-05-03 20:19 | 46.40895 | 6.36119 | 5793 ft | 206 kts | 224° |
| 2026-05-03 20:19 | 46.39921 | 6.34674 | 5534 ft | 201 kts | 224° |
| 2026-05-03 20:19 | 46.38968 | 6.33261 | 5298 ft | 191 kts | 224° |
| 2026-05-03 20:19 | 46.38056 | 6.31911 | 5032 ft | 183 kts | 224° |
| 2026-05-03 20:20 | 46.37179 | 6.30614 | 4791 ft | 179 kts | 225° |
| 2026-05-03 20:20 | 46.36310 | 6.29329 | 4551 ft | 178 kts | 225° |
| 2026-05-03 20:20 | 46.35444 | 6.28048 | 4302 ft | 178 kts | 225° |
| 2026-05-03 20:20 | 46.34580 | 6.26770 | 4072 ft | 178 kts | 225° |
| 2026-05-03 20:21 | 46.33709 | 6.25484 | 3836 ft | 179 kts | 225° |
| 2026-05-03 20:21 | 46.32837 | 6.24196 | 3597 ft | 179 kts | 225° |
| 2026-05-03 20:21 | 46.31972 | 6.22920 | 3365 ft | 178 kts | 225° |
| 2026-05-03 20:21 | 46.31170 | 6.21737 | 3145 ft | 151 kts | 225° |
| 2026-05-03 20:22 | 46.30481 | 6.20721 | 2947 ft | 134 kts | 224° |
| 2026-05-03 20:22 | 46.29837 | 6.19772 | 2770 ft | 130 kts | 225° |
| 2026-05-03 20:22 | 46.29211 | 6.18850 | 2599 ft | 128 kts | 225° |
| 2026-05-03 20:22 | 46.28589 | 6.17931 | 2430 ft | 127 kts | 225° |
| 2026-05-03 20:23 | 46.27970 | 6.17017 | 2245 ft | 127 kts | 225° |
| 2026-05-03 20:23 | 46.27346 | 6.16105 | 2055 ft | 128 kts | 225° |
| 2026-05-03 20:23 | 46.26719 | 6.15185 | 1900 ft | 129 kts | 225° |
| 2026-05-03 20:23 | 46.26092 | 6.14267 | 1719 ft | 130 kts | 226° |
| 2026-05-03 20:24 | 46.25452 | 6.13323 | 1532 ft | 132 kts | 227° |
| 2026-05-03 20:24 | 46.24809 | 6.12372 | 1380 ft | 132 kts | 227° |
| 2026-05-03 20:24 | 46.24264 | 6.11568 | 1368 ft | 88 kts | 225° |
| 2026-05-03 20:24 | 46.23974 | 6.11141 | 1375 ft | 36 kts | 224° |
| 2026-05-03 20:25 | 46.23834 | 6.11071 | 1379 ft | 4 kts | 172° |
| 2026-05-03 20:25 | 46.23820 | 6.11074 | 1380 ft | 3 kts | 173° |
| 2026-05-03 20:25 | 46.23801 | 6.11077 | 1380 ft | 2 kts | 173° |
| 2026-05-03 20:25 | 46.23789 | 6.11079 | 1378 ft | 1 kts | 172° |
| 2026-05-03 20:26 | 46.23783 | 6.11081 | 1379 ft | 5 kts | 171° |
| 2026-05-03 20:26 | 46.23746 | 6.11088 | 1384 ft | 4 kts | 172° |
| 2026-05-03 20:26 | 46.23744 | 6.11088 | 1384 ft | 0 kts | 172° |
| 2026-05-03 20:26 | 46.23720 | 6.11086 | 1386 ft | 8 kts | 195° |
| 2026-05-03 20:27 | 46.23704 | 6.11076 | 1388 ft | 8 kts | 206° |
| 2026-05-03 20:27 | 46.23665 | 6.11024 | 1390 ft | 16 kts | 227° |
| 2026-05-03 20:27 | 46.23483 | 6.10754 | 1387 ft | 21 kts | 224° |
| 2026-05-03 20:27 | 46.23373 | 6.10768 | 1397 ft | 13 kts | 135° |
| 2026-05-03 20:28 | 46.23346 | 6.10807 | 1396 ft | 3 kts | 134° |
| 2026-05-03 20:28 | 46.23345 | 6.10811 | 1393 ft | 0 kts | 126° |
| 2026-05-03 20:28 | 46.23353 | 6.10843 | 1395 ft | 10 kts | 57° |
| 2026-05-03 20:29 | 46.23349 | 6.10904 | 1401 ft | 7 kts | 148° |
| 2026-05-03 20:29 | 46.23317 | 6.10950 | 1395 ft | 0 kts | 135° |
| 2026-05-03 20:29 | 46.23313 | 6.10957 | 1395 ft | 0 kts | 135° |
| 2026-05-03 20:29 | 46.23308 | 6.10963 | 1396 ft | 1 kts | 134° |
| 2026-05-03 20:30 | 46.23308 | 6.10964 | 1396 ft | 0 kts | 134° |